Time;durP1;ratioP1;P1;durP2;ratioP2;P2;SDS_P1;SDS_P2;PMS_P1;PMS_P2;Temp;Humidity;BMP_temperature;BMP_pressure;BME280_temperature;BME280_humidity;BME280_pressure;Samples;Min_cycle;Max_cycle;Signal;HPM_P1;HPM_P2
2023/07/02 00:01:56;;;;;;;53.77;17.03;;;17.50;99.90;;;;;;5123403;27;20833;-61
2023/07/02 00:04:24;;;;;;;48.30;15.43;;;17.40;99.90;;;;;;5115909;27;20846;-60
2023/07/02 00:06:51;;;;;;;51.80;17.17;;;17.40;99.90;;;;;;5119155;27;20840;-61
2023/07/02 00:09:18;;;;;;;47.07;14.40;;;17.40;99.90;;;;;;5124595;27;20785;-61
2023/07/02 00:11:46;;;;;;;26.03;11.17;;;17.40;99.90;;;;;;5107738;27;20472;-60
2023/07/02 00:14:14;;;;;;;41.53;14.47;;;17.40;99.90;;;;;;5108346;27;21158;-61
2023/07/02 00:16:44;;;;;;;40.37;13.10;;;17.40;99.90;;;;;;5120286;27;20685;-60
2023/07/02 00:19:11;;;;;;;40.03;13.17;;;17.50;99.90;;;;;;5111171;27;20996;-60
2023/07/02 00:21:40;;;;;;;31.23;13.13;;;16.60;99.90;;;;;;5110593;27;20480;-61
2023/07/02 00:24:10;;;;;;;45.60;15.77;;;17.60;99.90;;;;;;5107579;27;20464;-60
2023/07/02 00:26:38;;;;;;;38.37;13.93;;;17.40;99.90;;;;;;5117784;27;20506;-61
2023/07/02 00:29:06;;;;;;;51.77;15.37;;;17.50;99.90;;;;;;5121811;27;20547;-60
2023/07/02 00:31:33;;;;;;;36.30;14.10;;;17.50;99.90;;;;;;5116066;27;20474;-60
2023/07/02 00:34:00;;;;;;;67.13;17.57;;;17.50;99.90;;;;;;5123632;27;20480;-60
2023/07/02 00:36:28;;;;;;;53.97;12.80;;;17.50;99.90;;;;;;5083246;27;21511;-61
2023/07/02 00:38:56;;;;;;;54.20;16.80;;;17.50;99.90;;;;;;5112996;27;20487;-60
2023/07/02 00:41:23;;;;;;;37.20;13.43;;;;;;;;;;5115350;27;20504;-60
2023/07/02 00:43:54;;;;;;;30.57;11.57;;;;;;;;;;5125156;27;20833;-60
2023/07/02 00:46:22;;;;;;;33.67;12.10;;;17.50;99.90;;;;;;5082079;27;20558;-60
2023/07/02 00:48:50;;;;;;;28.43;10.77;;;17.60;99.90;;;;;;5097117;27;20830;-60
2023/07/02 00:51:19;;;;;;;43.57;14.23;;;17.60;99.90;;;;;;5109146;27;20475;-60
2023/07/02 00:53:47;;;;;;;21.50;9.57;;;17.60;99.90;;;;;;5103707;27;20557;-60
2023/07/02 00:56:16;;;;;;;25.43;10.60;;;17.60;99.90;;;;;;5117421;27;20495;-60
2023/07/02 00:58:46;;;;;;;29.73;11.00;;;17.60;99.90;;;;;;5088873;27;20474;-60
2023/07/02 01:01:13;;;;;;;50.97;14.73;;;17.70;99.90;;;;;;5094121;27;20476;-60
2023/07/02 01:03:52;;;;;;;29.43;10.73;;;17.70;99.90;;;;;;5091826;27;20482;-60
2023/07/02 01:06:20;;;;;;;28.40;10.37;;;17.60;99.90;;;;;;5080311;27;20534;-60
2023/07/02 01:08:48;;;;;;;24.10;9.20;;;17.60;99.90;;;;;;5094494;27;21650;-60
2023/07/02 01:11:16;;;;;;;32.87;10.73;;;17.60;99.90;;;;;;5121505;27;20475;-60
2023/07/02 01:13:44;;;;;;;26.77;9.47;;;17.60;99.90;;;;;;5116717;27;20978;-60
2023/07/02 01:16:11;;;;;;;44.20;13.30;;;17.70;99.90;;;;;;5122744;27;20575;-60
2023/07/02 01:18:39;;;;;;;33.53;10.83;;;17.60;99.90;;;;;;5122277;27;20488;-60
2023/07/02 01:21:07;;;;;;;37.67;12.37;;;19.10;99.90;;;;;;5078153;27;20609;-61
2023/07/02 01:23:35;;;;;;;27.03;9.33;;;17.50;99.90;;;;;;5111415;27;20475;-60
2023/07/02 01:26:01;;;;;;;53.70;16.73;;;17.50;99.90;;;;;;5069007;27;20474;-60
2023/07/02 01:28:36;;;;;;;27.80;9.83;;;17.50;99.90;;;;;;5096614;27;20485;-60
2023/07/02 01:31:04;;;;;;;49.23;15.13;;;17.40;99.90;;;;;;5084677;27;20467;-60
2023/07/02 01:33:31;;;;;;;45.77;14.43;;;17.30;99.90;;;;;;5091747;27;20558;-60
2023/07/02 01:35:58;;;;;;;58.57;17.93;;;15.00;99.90;;;;;;5119254;27;20896;-60
2023/07/02 01:38:27;;;;;;;52.60;13.43;;;17.30;99.90;;;;;;5123939;27;21846;-60
2023/07/02 01:40:53;;;;;;;54.33;20.70;;;17.30;99.90;;;;;;5075884;27;20874;-60
2023/07/02 01:43:20;;;;;;;47.47;19.50;;;17.30;99.90;;;;;;5102947;27;20566;-60
2023/07/02 01:45:47;;;;;;;55.03;23.10;;;17.10;99.90;;;;;;5112203;27;20486;-60
2023/07/02 01:48:14;;;;;;;43.20;21.37;;;17.30;99.90;;;;;;5111769;27;20612;-60
2023/07/02 01:50:41;;;;;;;46.63;21.00;;;18.30;99.90;;;;;;5113948;27;20511;-60
2023/07/02 01:53:07;;;;;;;47.87;19.93;;;17.30;99.90;;;;;;5114331;27;20468;-60
2023/07/02 01:55:35;;;;;;;49.73;21.53;;;17.20;99.90;;;;;;5091664;27;20480;-60
2023/07/02 01:58:02;;;;;;;58.73;21.90;;;17.20;99.90;;;;;;5110797;27;20479;-60
2023/07/02 02:00:29;;;;;;;48.47;18.20;;;17.20;99.90;;;;;;5113460;27;20633;-60
2023/07/02 02:02:56;;;;;;;61.03;21.70;;;17.20;99.90;;;;;;5093023;27;20989;-60
2023/07/02 02:05:23;;;;;;;47.07;17.07;;;17.10;99.90;;;;;;5103392;27;21019;-60
2023/07/02 02:07:50;;;;;;;37.27;13.97;;;;;;;;;;5094468;27;20476;-60
2023/07/02 02:10:17;;;;;;;25.43;12.03;;;17.10;99.90;;;;;;5102789;27;20486;-60
2023/07/02 02:12:45;;;;;;;31.70;13.80;;;17.10;99.90;;;;;;5111815;27;20475;-60
2023/07/02 02:15:14;;;;;;;36.07;12.80;;;17.10;99.90;;;;;;5115627;27;20601;-60
2023/07/02 02:17:40;;;;;;;31.80;14.30;;;17.10;99.90;;;;;;5116516;27;20805;-61
2023/07/02 02:20:09;;;;;;;44.23;15.70;;;17.10;99.90;;;;;;5113939;27;20483;-61
2023/07/02 02:22:35;;;;;;;34.40;12.37;;;17.00;99.90;;;;;;5115481;27;20468;-61
2023/07/02 02:25:03;;;;;;;51.30;17.60;;;17.00;99.90;;;;;;5113983;27;20471;-60
2023/07/02 02:27:30;;;;;;;34.57;13.63;;;17.00;99.90;;;;;;5076870;27;21349;-61
2023/07/02 02:29:58;;;;;;;55.83;16.93;;;16.90;99.90;;;;;;5110861;27;20476;-60
2023/07/02 02:32:25;;;;;;;42.70;13.27;;;17.00;99.90;;;;;;5079867;27;20473;-61
2023/07/02 02:34:52;;;;;;;42.57;14.67;;;17.00;99.90;;;;;;5111210;27;21067;-60
2023/07/02 02:37:19;;;;;;;30.33;11.67;;;16.90;99.90;;;;;;5113088;27;20475;-60
2023/07/02 02:39:46;;;;;;;30.57;12.37;;;;;;;;;;5114713;27;20484;-60
2023/07/02 02:42:44;;;;;;;33.13;10.67;;;16.90;99.90;;;;;;5088439;27;20469;-60
2023/07/02 02:45:13;;;;;;;29.10;10.43;;;17.00;99.90;;;;;;5097268;27;20876;-60
2023/07/02 02:47:39;;;;;;;55.83;11.20;;;17.00;99.90;;;;;;5114257;27;20844;-60
2023/07/02 02:50:09;;;;;;;45.80;15.60;;;17.00;99.90;;;;;;5079612;28;20597;-60
2023/07/02 02:52:36;;;;;;;20.90;8.50;;;16.90;99.90;;;;;;5108813;27;20475;-59
2023/07/02 02:55:03;;;;;;;41.07;14.03;;;16.90;99.90;;;;;;5082789;28;20477;-61
2023/07/02 02:57:30;;;;;;;34.17;12.07;;;16.90;99.90;;;;;;5079538;27;20502;-60
2023/07/02 02:59:56;;;;;;;49.60;15.90;;;16.90;99.90;;;;;;5083717;27;20484;-60
2023/07/02 03:02:25;;;;;;;20.90;8.20;;;16.90;99.90;;;;;;5087967;28;20480;-61
2023/07/02 03:04:51;;;;;;;33.40;10.03;;;16.90;99.90;;;;;;5109309;27;20483;-60
2023/07/02 03:07:18;;;;;;;41.60;11.87;;;16.80;99.90;;;;;;5105308;27;21170;-60
2023/07/02 03:09:45;;;;;;;41.43;11.03;;;16.90;99.90;;;;;;5111888;27;20476;-60
2023/07/02 03:12:12;;;;;;;28.40;10.50;;;16.90;99.90;;;;;;5108378;27;20492;-60
2023/07/02 03:14:39;;;;;;;27.33;10.43;;;16.90;99.90;;;;;;5102643;27;20777;-60
2023/07/02 03:17:05;;;;;;;44.30;13.60;;;17.00;99.90;;;;;;5109134;27;20475;-60
2023/07/02 03:19:34;;;;;;;39.17;13.87;;;17.00;99.90;;;;;;5078993;28;20512;-60
2023/07/02 03:22:00;;;;;;;52.90;16.73;;;17.00;99.90;;;;;;5107901;27;20475;-60
2023/07/02 03:24:27;;;;;;;47.63;12.40;;;17.00;99.90;;;;;;5111315;27;20472;-60
2023/07/02 03:26:54;;;;;;;61.67;18.10;;;17.00;99.90;;;;;;5112533;27;20839;-60
2023/07/02 03:29:21;;;;;;;40.20;13.80;;;17.00;99.90;;;;;;5086765;28;20473;-60
2023/07/02 03:31:48;;;;;;;25.87;10.60;;;16.90;99.90;;;;;;5068429;28;20546;-60
2023/07/02 03:34:15;;;;;;;33.27;12.40;;;16.90;99.90;;;;;;5092574;27;20642;-60
2023/07/02 03:36:43;;;;;;;32.40;11.20;;;16.80;99.90;;;;;;5092846;27;20480;-60
2023/07/02 03:39:10;;;;;;;37.20;13.07;;;;;;;;;;5082630;28;20488;-60
2023/07/02 03:41:37;;;;;;;30.13;11.47;;;16.70;99.90;;;;;;5089169;28;21009;-60
2023/07/02 03:44:04;;;;;;;45.47;15.43;;;16.50;99.90;;;;;;5071916;28;20508;-60
2023/07/02 03:46:31;;;;;;;30.50;11.30;;;16.60;99.90;;;;;;5108684;27;20488;-60
2023/07/02 03:48:58;;;;;;;61.33;18.50;;;16.50;99.90;;;;;;5069595;28;20557;-60
2023/07/02 03:51:25;;;;;;;33.37;13.33;;;16.50;99.90;;;;;;5082177;28;20496;-61
2023/07/02 03:53:53;;;;;;;42.57;12.63;;;16.50;99.90;;;;;;5093521;28;20476;-60
2023/07/02 03:56:20;;;;;;;33.87;11.47;;;16.60;99.90;;;;;;5083203;27;20473;-60
2023/07/02 03:58:47;;;;;;;29.23;10.93;;;;;;;;;;5091525;27;20488;-60
2023/07/02 04:01:14;;;;;;;37.93;12.13;;;16.70;99.90;;;;;;5092577;27;20949;-60
2023/07/02 04:03:43;;;;;;;26.60;10.70;;;16.70;99.90;;;;;;5113775;27;20483;-60
2023/07/02 04:06:10;;;;;;;37.93;13.40;;;16.70;99.90;;;;;;5116220;27;20502;-59
2023/07/02 04:08:37;;;;;;;28.73;10.27;;;16.70;99.90;;;;;;5115361;27;20927;-60
2023/07/02 04:11:05;;;;;;;55.50;17.80;;;16.70;99.90;;;;;;5112901;27;20502;-60
2023/07/02 04:13:32;;;;;;;44.43;12.97;;;16.80;99.90;;;;;;5078018;27;20468;-60
2023/07/02 04:15:59;;;;;;;60.53;17.10;;;16.80;99.90;;;;;;5084573;27;20971;-60
2023/07/02 04:18:26;;;;;;;28.63;10.97;;;17.00;99.90;;;;;;5107928;27;20472;-60
2023/07/02 04:20:53;;;;;;;37.70;11.97;;;17.00;99.90;;;;;;5107059;27;21466;-59
2023/07/02 04:23:19;;;;;;;35.90;11.87;;;17.00;99.90;;;;;;5110579;27;20464;-60
2023/07/02 04:25:46;;;;;;;30.40;11.33;;;17.20;99.90;;;;;;5084567;27;20495;-59
2023/07/02 04:28:14;;;;;;;31.30;12.30;;;17.30;99.90;;;;;;5091434;27;20499;-60
2023/07/02 04:30:42;;;;;;;29.17;10.03;;;17.30;99.90;;;;;;5096790;27;20468;-60
2023/07/02 04:33:09;;;;;;;47.23;14.80;;;17.30;99.90;;;;;;5062379;27;20737;-60
2023/07/02 04:35:36;;;;;;;37.43;13.80;;;17.20;99.90;;;;;;5089913;27;20508;-60
2023/07/02 04:38:03;;;;;;;37.73;12.33;;;17.10;99.90;;;;;;5073771;28;21123;-60
2023/07/02 04:40:30;;;;;;;34.37;11.60;;;17.00;99.90;;;;;;5057836;28;20487;-60
2023/07/02 04:42:58;;;;;;;49.87;15.30;;;16.90;99.90;;;;;;5057145;28;20496;-60
2023/07/02 04:45:36;;;;;;;41.57;13.23;;;16.90;99.90;;;;;;5080382;27;20484;-60
2023/07/02 04:48:03;;;;;;;49.60;16.03;;;;;;;;;;5091919;27;20491;-60
2023/07/02 04:50:30;;;;;;;37.83;13.37;;;16.90;99.90;;;;;;5088083;27;20486;-60
2023/07/02 04:52:57;;;;;;;41.63;14.23;;;16.90;99.90;;;;;;5092421;27;20899;-60
2023/07/02 04:55:23;;;;;;;40.17;14.70;;;16.80;99.90;;;;;;5078049;28;20601;-60
2023/07/02 04:57:50;;;;;;;28.00;13.00;;;;;;;;;;5070838;27;20484;-60
2023/07/02 05:00:18;;;;;;;37.73;15.93;;;16.80;99.90;;;;;;5108586;27;20473;-60
2023/07/02 05:02:46;;;;;;;31.50;12.77;;;16.80;99.90;;;;;;5087778;27;20566;-60
2023/07/02 05:05:14;;;;;;;48.93;17.83;;;;;;;;;;5102817;27;20480;-60
2023/07/02 05:07:41;;;;;;;39.43;16.63;;;16.80;99.90;;;;;;5090519;28;20839;-60
2023/07/02 05:10:09;;;;;;;50.33;18.37;;;16.90;99.90;;;;;;5083613;27;20486;-60
2023/07/02 05:12:35;;;;;;;36.60;16.53;;;16.90;99.90;;;;;;5090036;28;20990;-60
2023/07/02 05:15:02;;;;;;;63.83;21.27;;;17.00;99.90;;;;;;5076329;27;20464;-60
2023/07/02 05:17:29;;;;;;;44.53;17.10;;;17.00;99.90;;;;;;5114126;27;20473;-60
2023/07/02 05:19:57;;;;;;;62.00;22.37;;;17.10;99.90;;;;;;5092766;27;20473;-60
2023/07/02 05:22:24;;;;;;;35.43;16.27;;;17.10;99.90;;;;;;5078444;28;20766;-60
2023/07/02 05:24:51;;;;;;;51.17;17.90;;;17.10;99.90;;;;;;5072706;28;21030;-60
2023/07/02 05:27:18;;;;;;;45.37;17.50;;;17.10;99.90;;;;;;5087010;28;20818;-60
2023/07/02 05:29:44;;;;;;;46.07;18.30;;;17.20;99.90;;;;;;5085677;27;20749;-60
2023/07/02 05:32:11;;;;;;;55.30;19.80;;;17.20;99.90;;;;;;5089386;27;20509;-60
2023/07/02 05:34:38;;;;;;;47.60;20.33;;;17.30;99.90;;;;;;5091767;28;20482;-60
2023/07/02 05:37:06;;;;;;;60.13;22.20;;;17.30;99.90;;;;;;5102512;27;20995;-60
2023/07/02 05:39:34;;;;;;;67.93;24.13;;;17.20;99.90;;;;;;5095360;27;20482;-60
2023/07/02 05:42:01;;;;;;;61.07;22.40;;;17.40;99.90;;;;;;5104978;27;20475;-60
2023/07/02 05:44:28;;;;;;;41.80;18.60;;;;;;;;;;5083583;27;20485;-60
2023/07/02 05:46:55;;;;;;;74.40;25.37;;;17.40;99.90;;;;;;5092884;28;20800;-60
2023/07/02 05:49:22;;;;;;;64.13;23.80;;;17.50;99.90;;;;;;5094103;27;21148;-61
2023/07/02 05:51:49;;;;;;;50.70;21.77;;;17.60;99.90;;;;;;5092599;27;20493;-60
2023/07/02 05:54:17;;;;;;;56.83;22.13;;;17.50;99.90;;;;;;5094707;27;20485;-60
2023/07/02 05:56:44;;;;;;;56.07;23.37;;;17.70;99.90;;;;;;5093097;27;20474;-60
2023/07/02 05:59:14;;;;;;;70.90;25.67;;;17.70;99.90;;;;;;5094692;27;20503;-60
2023/07/02 06:01:41;;;;;;;49.00;22.77;;;17.70;99.90;;;;;;5079103;27;21013;-60
2023/07/02 06:04:08;;;;;;;72.90;26.27;;;17.70;99.90;;;;;;5096189;27;20712;-60
2023/07/02 06:06:35;;;;;;;51.57;24.80;;;17.80;99.90;;;;;;5095236;27;20473;-61
2023/07/02 06:09:02;;;;;;;68.77;26.30;;;17.80;99.70;;;;;;5103831;27;20473;-60
2023/07/02 06:11:31;;;;;;;63.97;25.27;;;17.80;99.90;;;;;;5091716;27;20488;-61
2023/07/02 06:13:57;;;;;;;77.03;29.47;;;17.70;99.90;;;;;;5092846;28;20910;-60
2023/07/02 06:16:24;;;;;;;60.33;25.60;;;17.70;99.90;;;;;;5102962;27;20699;-60
2023/07/02 06:18:51;;;;;;;66.17;25.30;;;;;;;;;;5091697;27;20485;-60
2023/07/02 06:21:19;;;;;;;69.97;29.30;;;17.90;99.90;;;;;;5075934;27;20750;-60
2023/07/02 06:23:46;;;;;;;57.03;24.00;;;17.90;99.90;;;;;;5093808;28;20528;-59
2023/07/02 06:26:13;;;;;;;60.03;26.87;;;;;;;;;;5092777;27;21218;-60
2023/07/02 06:28:42;;;;;;;59.57;24.87;;;18.10;99.50;;;;;;5088641;28;20921;-60
2023/07/02 06:31:08;;;;;;;75.83;27.23;;;18.10;99.30;;;;;;5105244;27;20856;-60
2023/07/02 06:33:39;;;;;;;60.33;24.50;;;18.30;98.70;;;;;;5105178;27;20565;-60
2023/07/02 06:36:06;;;;;;;73.10;26.93;;;18.40;98.20;;;;;;5103631;27;20847;-60
2023/07/02 06:38:33;;;;;;;60.37;24.80;;;;;;;;;;5099036;27;20489;-60
2023/07/02 06:41:00;;;;;;;96.13;31.27;;;18.60;98.00;;;;;;5099316;27;20491;-61
2023/07/02 06:43:27;;;;;;;72.53;27.43;;;18.70;98.60;;;;;;5097561;27;20507;-61
2023/07/02 06:45:55;;;;;;;77.03;29.77;;;18.80;98.60;;;;;;5094476;27;20484;-61
2023/07/02 06:48:22;;;;;;;58.33;24.87;;;18.80;98.80;;;;;;5095358;27;20472;-61
2023/07/02 06:50:49;;;;;;;77.00;32.30;;;18.90;98.80;;;;;;5097204;27;20851;-60
2023/07/02 06:53:15;;;;;;;55.40;25.10;;;19.00;97.60;;;;;;5094251;27;20591;-61
2023/07/02 06:55:42;;;;;;;65.73;27.97;;;19.00;98.10;;;;;;5064235;27;20474;-61
2023/07/02 06:58:09;;;;;;;68.70;27.47;;;19.00;97.80;;;;;;5072991;28;20476;-61
2023/07/02 07:00:36;;;;;;;74.97;29.80;;;19.00;98.20;;;;;;5085235;28;20481;-61
2023/07/02 07:03:05;;;;;;;80.10;28.93;;;19.00;97.50;;;;;;5084615;28;20867;-61
2023/07/02 07:05:32;;;;;;;62.10;29.20;;;19.10;97.10;;;;;;5095998;27;20481;-61
2023/07/02 07:08:00;;;;;;;89.70;32.63;;;19.10;98.30;;;;;;5064837;28;20478;-61
2023/07/02 07:10:27;;;;;;;61.03;28.10;;;;;;;;;;5093927;27;20488;-61
2023/07/02 07:12:54;;;;;;;88.57;32.93;;;19.30;97.60;;;;;;5091153;27;20502;-61
2023/07/02 07:15:21;;;;;;;62.40;27.93;;;19.40;96.60;;;;;;5091276;27;20472;-61
2023/07/02 07:17:48;;;;;;;60.87;27.20;;;19.40;96.80;;;;;;5099330;27;21148;-61
2023/07/02 07:20:16;;;;;;;73.03;28.10;;;19.40;97.00;;;;;;5086586;27;20488;-62
2023/07/02 07:22:43;;;;;;;56.47;25.10;;;19.50;96.70;;;;;;5080317;27;20964;-61
2023/07/02 07:25:10;;;;;;;59.20;25.73;;;19.60;96.00;;;;;;5090373;28;22413;-61
2023/07/02 07:27:37;;;;;;;56.27;24.60;;;19.60;96.40;;;;;;5085006;27;20488;-60
2023/07/02 07:30:05;;;;;;;98.40;34.07;;;19.60;95.70;;;;;;5089264;27;20836;-60
2023/07/02 07:32:32;;;;;;;71.53;29.50;;;19.80;95.80;;;;;;5087084;27;20484;-61
2023/07/02 07:34:58;;;;;;;73.23;30.00;;;19.90;95.90;;;;;;5093606;27;20473;-61
2023/07/02 07:37:27;;;;;;;63.93;26.87;;;20.00;95.80;;;;;;5096066;27;20843;-61
2023/07/02 07:39:53;;;;;;;77.40;32.93;;;20.00;95.40;;;;;;5093646;27;20971;-60
2023/07/02 07:42:20;;;;;;;63.87;27.50;;;20.00;95.80;;;;;;5117008;27;20487;-61
2023/07/02 07:44:47;;;;;;;72.60;28.90;;;19.90;95.00;;;;;;5117659;27;20472;-61
2023/07/02 07:47:14;;;;;;;61.53;28.27;;;20.00;94.50;;;;;;5113902;27;20856;-61
2023/07/02 07:49:41;;;;;;;69.33;29.73;;;20.00;94.70;;;;;;5115796;27;20491;-60
2023/07/02 07:52:08;;;;;;;80.20;30.53;;;20.10;95.30;;;;;;5115090;27;20976;-60
2023/07/02 07:54:37;;;;;;;70.60;29.80;;;20.10;94.40;;;;;;5117847;27;20468;-60
2023/07/02 07:57:04;;;;;;;84.77;34.03;;;20.30;95.10;;;;;;5097175;27;20478;-60
2023/07/02 07:59:31;;;;;;;67.43;30.53;;;20.30;94.50;;;;;;5099750;27;20476;-60
2023/07/02 08:01:58;;;;;;;97.00;35.27;;;20.40;94.30;;;;;;5100442;27;20493;-60
2023/07/02 08:04:25;;;;;;;68.40;29.00;;;20.50;94.10;;;;;;5104922;27;20486;-60
2023/07/02 08:06:51;;;;;;;70.67;27.90;;;20.60;94.30;;;;;;5114577;27;20476;-60
2023/07/02 08:09:18;;;;;;;64.97;29.23;;;20.90;94.20;;;;;;5111366;27;20606;-60
2023/07/02 08:11:47;;;;;;;75.03;29.97;;;21.00;94.10;;;;;;5089263;27;20489;-61
2023/07/02 08:14:14;;;;;;;59.53;27.20;;;20.20;92.70;;;;;;5083165;27;20491;-61
2023/07/02 08:16:41;;;;;;;57.63;29.90;;;20.70;93.00;;;;;;5111234;27;20522;-61
2023/07/02 08:19:08;;;;;;;70.70;30.97;;;20.80;94.00;;;;;;5113747;27;20564;-61
2023/07/02 08:21:35;;;;;;;69.77;31.27;;;20.50;91.80;;;;;;5113899;27;20715;-61
2023/07/02 08:24:01;;;;;;;76.17;30.10;;;20.60;93.10;;;;;;5121842;27;20485;-61
2023/07/02 08:26:28;;;;;;;75.60;33.30;;;20.50;92.80;;;;;;5115564;27;20850;-60
2023/07/02 08:28:57;;;;;;;63.13;28.87;;;20.50;91.80;;;;;;5097860;27;20472;-60
2023/07/02 08:31:23;;;;;;;75.43;30.90;;;20.50;92.40;;;;;;5104108;27;21300;-61
2023/07/02 08:33:50;;;;;;;54.90;25.17;;;20.70;93.10;;;;;;5115084;27;20492;-61
2023/07/02 08:36:17;;;;;;;70.07;28.80;;;21.00;92.30;;;;;;5096853;27;20975;-61
2023/07/02 08:38:44;;;;;;;60.63;28.27;;;21.00;91.40;;;;;;5111919;27;20843;-61
2023/07/02 08:41:10;;;;;;;67.53;28.93;;;20.90;91.70;;;;;;5073805;27;20474;-61
2023/07/02 08:43:38;;;;;;;66.33;29.23;;;22.10;92.40;;;;;;5107791;27;20939;-61
2023/07/02 08:46:06;;;;;;;88.80;34.10;;;20.80;91.70;;;;;;5094356;27;20480;-61
2023/07/02 08:48:34;;;;;;;70.20;31.33;;;20.80;91.40;;;;;;5112340;27;20488;-61
2023/07/02 08:51:01;;;;;;;88.60;33.20;;;20.90;91.60;;;;;;5106146;27;20510;-60
2023/07/02 08:53:33;;;;;;;68.40;30.40;;;21.10;91.90;;;;;;5094437;27;20487;-61
2023/07/02 08:56:01;;;;;;;89.93;33.40;;;21.10;91.30;;;;;;5107137;27;20469;-60
2023/07/02 08:58:27;;;;;;;68.83;28.23;;;21.20;91.00;;;;;;5116717;27;21011;-61
2023/07/02 09:01:11;;;;;;;172.27;53.87;;;21.30;91.50;;;;;;5113210;27;20474;-61
2023/07/02 09:03:39;;;;;;;65.30;26.57;;;21.20;91.60;;;;;;5081074;27;20962;-61
2023/07/02 09:06:06;;;;;;;77.43;28.83;;;21.20;91.00;;;;;;5081357;27;20560;-61
2023/07/02 09:08:34;;;;;;;62.20;27.93;;;21.20;91.50;;;;;;5069320;27;20878;-61
2023/07/02 09:11:11;;;;;;;72.67;30.00;;;21.30;92.10;;;;;;5077027;27;20547;-61
2023/07/02 09:13:48;;;;;;;64.27;28.47;;;21.40;92.10;;;;;;5077217;27;20492;-61
2023/07/02 09:16:24;;;;;;;71.13;30.63;;;21.40;91.90;;;;;;5067075;27;20468;-61
2023/07/02 09:19:01;;;;;;;66.80;27.80;;;21.50;90.70;;;;;;5103620;27;20485;-61
2023/07/02 09:21:29;;;;;;;76.60;27.17;;;21.50;91.10;;;;;;5072786;27;20743;-61
2023/07/02 09:23:56;;;;;;;78.03;30.00;;;21.70;91.00;;;;;;5067630;28;20919;-61
2023/07/02 09:26:24;;;;;;;70.37;27.70;;;21.90;91.60;;;;;;5102219;27;20472;-61
2023/07/02 09:28:51;;;;;;;61.30;27.87;;;22.20;91.60;;;;;;5107797;27;20688;-61
2023/07/02 09:31:17;;;;;;;52.87;25.30;;;22.20;90.30;;;;;;5109163;27;20819;-61
2023/07/02 09:33:46;;;;;;;54.93;27.47;;;21.90;87.20;;;;;;5077546;27;20470;-60
2023/07/02 09:36:13;;;;;;;66.33;29.20;;;21.70;86.60;;;;;;5077396;27;20620;-61
2023/07/02 09:38:41;;;;;;;55.83;26.93;;;21.70;87.80;;;;;;5087477;27;20472;-61
2023/07/02 09:41:09;;;;;;;68.00;30.07;;;21.60;89.40;;;;;;5084698;27;20467;-61
2023/07/02 09:43:36;;;;;;;54.63;27.73;;;22.60;90.00;;;;;;5091681;27;20530;-62
2023/07/02 09:46:04;;;;;;;94.30;34.73;;;21.70;89.90;;;;;;5089748;27;20468;-61
2023/07/02 09:48:35;;;;;;;65.73;28.23;;;21.80;88.50;;;;;;5083550;27;20476;-61
2023/07/02 09:51:11;;;;;;;64.77;26.57;;;22.20;88.90;;;;;;5090978;27;20491;-61
2023/07/02 09:53:38;;;;;;;53.73;26.10;;;22.50;88.40;;;;;;5081580;27;20497;-61
2023/07/02 09:56:05;;;;;;;70.87;30.03;;;22.50;85.30;;;;;;5083078;27;21355;-61
2023/07/02 09:58:32;;;;;;;46.00;21.67;;;22.60;84.30;;;;;;5080099;27;20577;-61
2023/07/02 10:00:59;;;;;;;66.43;27.90;;;24.10;85.00;;;;;;5098818;27;20475;-62
2023/07/02 10:03:30;;;;;;;51.03;26.77;;;22.50;83.90;;;;;;5104605;27;20476;-61
2023/07/02 10:06:05;;;;;;;81.40;32.23;;;22.40;82.70;;;;;;5092271;27;20480;-61
2023/07/02 10:08:33;;;;;;;47.13;24.03;;;;;;;;;;5080828;27;20475;-62
2023/07/02 10:11:13;;;;;;;74.17;30.20;;;22.10;83.80;;;;;;5084392;27;20492;-60
2023/07/02 10:13:41;;;;;;;49.87;23.93;;;22.20;84.40;;;;;;5104979;27;20487;-62
2023/07/02 10:16:08;;;;;;;60.60;27.07;;;22.50;85.90;;;;;;5087529;27;20535;-61
2023/07/02 10:18:35;;;;;;;55.07;25.83;;;22.60;84.10;;;;;;5092081;27;20485;-61
2023/07/02 10:21:14;;;;;;;70.97;30.50;;;23.00;85.40;;;;;;5098900;27;20522;-61
2023/07/02 10:23:42;;;;;;;59.57;26.80;;;23.10;82.80;;;;;;5085721;27;20474;-61
2023/07/02 10:26:15;;;;;;;54.40;28.03;;;23.20;82.70;;;;;;5093886;27;20487;-61
2023/07/02 10:28:42;;;;;;;53.07;23.30;;;23.50;83.60;;;;;;5085118;27;20537;-62
2023/07/02 10:31:19;;;;;;;63.37;29.17;;;23.70;82.30;;;;;;5069592;27;20989;-63
2023/07/02 10:33:47;;;;;;;47.73;22.60;;;24.00;84.30;;;;;;5064227;28;20951;-62
2023/07/02 10:36:21;;;;;;;51.43;25.37;;;24.10;79.20;;;;;;5061668;28;20465;-62
2023/07/02 10:38:50;;;;;;;57.50;26.30;;;24.30;81.50;;;;;;5072960;28;20847;-62
2023/07/02 10:41:28;;;;;;;48.20;25.50;;;24.20;80.60;;;;;;5088512;27;20783;-62
2023/07/02 10:43:56;;;;;;;63.83;28.93;;;24.30;81.40;;;;;;5081877;28;21051;-62
2023/07/02 10:46:23;;;;;;;48.90;21.57;;;23.90;78.60;;;;;;5089733;27;20580;-62
2023/07/02 10:48:53;;;;;;;47.10;23.57;;;23.90;80.10;;;;;;5089951;27;20480;-63
2023/07/02 10:51:21;;;;;;;59.00;27.03;;;23.70;78.70;;;;;;5107243;27;20473;-62
2023/07/02 10:53:58;;;;;;;42.57;24.60;;;23.60;80.20;;;;;;5090898;28;20541;-61
2023/07/02 10:56:25;;;;;;;54.10;27.20;;;23.80;80.50;;;;;;5095157;27;20443;-61
2023/07/02 10:58:52;;;;;;;60.73;29.40;;;23.80;80.70;;;;;;5077865;27;20559;-61
2023/07/02 11:01:24;;;;;;;51.50;25.33;;;23.70;79.80;;;;;;5077115;27;20444;-62
2023/07/02 11:03:57;;;;;;;52.93;25.40;;;23.60;79.60;;;;;;5073026;27;20517;-63
2023/07/02 11:06:25;;;;;;;57.17;25.40;;;23.30;80.60;;;;;;5101026;27;20632;-62
2023/07/02 11:08:54;;;;;;;53.70;27.30;;;23.10;80.40;;;;;;5090074;27;20789;-62
2023/07/02 11:11:22;;;;;;;63.30;27.60;;;23.00;81.10;;;;;;5082536;28;20476;-61
2023/07/02 11:13:50;;;;;;;54.00;25.20;;;23.00;82.60;;;;;;5051645;28;20999;-61
2023/07/02 11:16:25;;;;;;;59.17;28.03;;;23.10;83.50;;;;;;5060603;27;20475;-61
2023/07/02 11:18:54;;;;;;;64.60;29.20;;;23.30;81.80;;;;;;5066734;27;20494;-61
2023/07/02 11:21:21;;;;;;;51.57;26.63;;;23.50;79.00;;;;;;5095901;27;20489;-62
2023/07/02 11:23:48;;;;;;;43.53;23.83;;;23.60;78.50;;;;;;5099858;27;20537;-62
2023/07/02 11:26:16;;;;;;;50.23;24.23;;;23.50;81.10;;;;;;5072403;28;20481;-61
2023/07/02 11:28:50;;;;;;;53.00;25.77;;;23.20;79.70;;;;;;5091199;27;21022;-62
2023/07/02 11:31:26;;;;;;;46.77;25.07;;;23.10;80.50;;;;;;5063459;28;20492;-61
2023/07/02 11:33:54;;;;;;;63.50;28.87;;;23.20;78.00;;;;;;5075238;27;20998;-61
2023/07/02 11:36:22;;;;;;;55.87;26.07;;;23.60;83.60;;;;;;5088826;27;20471;-61
2023/07/02 11:38:51;;;;;;;49.43;24.47;;;23.90;80.00;;;;;;5052403;28;20472;-61
2023/07/02 11:41:20;;;;;;;55.77;25.63;;;24.10;76.20;;;;;;5059447;27;20533;-61
2023/07/02 11:43:47;;;;;;;59.47;28.57;;;24.10;75.60;;;;;;5077511;27;20903;-62
2023/07/02 11:46:14;;;;;;;57.87;26.93;;;23.90;75.80;;;;;;5065258;27;20472;-62
2023/07/02 11:48:41;;;;;;;42.30;24.47;;;23.70;75.90;;;;;;5098549;27;20490;-62
2023/07/02 11:51:08;;;;;;;72.63;29.97;;;23.50;75.60;;;;;;5096289;27;20461;-62
2023/07/02 11:53:35;;;;;;;59.87;26.80;;;23.60;76.80;;;;;;5087749;27;20843;-62
2023/07/02 11:56:02;;;;;;;66.40;27.33;;;23.90;78.70;;;;;;5083483;27;21089;-62
2023/07/02 11:58:30;;;;;;;59.57;26.83;;;24.00;76.40;;;;;;5060537;27;20460;-61
2023/07/02 12:00:57;;;;;;;62.30;29.23;;;24.50;79.30;;;;;;5066993;27;21052;-61
2023/07/02 12:03:24;;;;;;;47.47;23.40;;;24.60;74.60;;;;;;5099739;27;20900;-63
2023/07/02 12:05:51;;;;;;;43.03;23.37;;;24.70;73.30;;;;;;5090180;28;20846;-62
2023/07/02 12:08:17;;;;;;;51.40;23.53;;;24.90;71.20;;;;;;5092384;27;20457;-62
2023/07/02 12:10:44;;;;;;;50.83;24.00;;;25.00;72.20;;;;;;5099503;27;20459;-61
2023/07/02 12:13:11;;;;;;;55.87;26.20;;;25.20;74.10;;;;;;5088929;28;20481;-62
2023/07/02 12:15:40;;;;;;;46.53;23.77;;;25.30;74.10;;;;;;5092078;27;20450;-62
2023/07/02 12:18:07;;;;;;;58.47;27.57;;;25.20;74.70;;;;;;5091557;27;20448;-62
2023/07/02 12:20:34;;;;;;;64.10;28.27;;;25.30;75.80;;;;;;5058757;27;20449;-62
2023/07/02 12:23:01;;;;;;;69.87;27.33;;;25.30;72.80;;;;;;5096378;27;20841;-63
2023/07/02 12:25:28;;;;;;;51.93;25.30;;;25.20;72.10;;;;;;5103713;27;20566;-62
2023/07/02 12:27:55;;;;;;;76.10;30.93;;;25.20;73.60;;;;;;5101540;27;20954;-62
2023/07/02 12:30:21;;;;;;;59.90;25.97;;;25.40;72.10;;;;;;5079106;28;20457;-62
2023/07/02 12:32:49;;;;;;;47.67;24.47;;;25.50;72.90;;;;;;5092348;27;20480;-62
2023/07/02 12:35:16;;;;;;;48.57;24.80;;;25.60;72.90;;;;;;5096583;27;20476;-62
2023/07/02 12:37:47;;;;;;;42.10;23.13;;;25.70;74.00;;;;;;5112785;27;20451;-62